MAD weather

Adolfo Suárez Madrid–Barajas Airport
Madrid, Madrid, Spain

Public forecast

Using degrees Celsius for public forecast. Weather courtesy of forecast.io.

METAR (pilot weather report)

Retrieved 2017/07/23 04:30 UTC (0 seconds ago):

LEMD 230430Z 36003KT CAVOK 18/07 Q1018 NOSIG

TAF (pilot weather forecast)

Forecast is more than 12 hours old.

Retrieved 2017/07/22 00:27 UTC (1 day ago):

TAF LEMD 222300Z 2300/2406 VRB05KT CAVOK TX35/2315Z TN18/2306Z PROB30 TEMPO 2300/2307 02010KT BECMG 2310/2312 23010KT BECMG 2320/2322 VRB05KT